createdAt,value
2023-11-30T00:00:31.382Z,15.02
2023-11-30T00:02:58.331Z,10.52
2023-11-30T00:05:25.146Z,9.23
2023-11-30T00:07:53.836Z,11.48
2023-11-30T00:10:20.641Z,10.80
2023-11-30T00:12:47.541Z,11.90
2023-11-30T00:15:14.610Z,10.63
2023-11-30T00:17:41.586Z,10.95
2023-11-30T00:20:09.902Z,10.00
2023-11-30T00:22:36.713Z,10.00
2023-11-30T00:25:04.150Z,12.13
2023-11-30T00:27:31.069Z,10.23
2023-11-30T00:29:57.817Z,10.25
2023-11-30T00:32:24.581Z,10.37
2023-11-30T00:34:51.726Z,11.48
2023-11-30T00:37:18.496Z,10.02
2023-11-30T00:39:45.333Z,13.38
2023-11-30T00:42:12.308Z,10.10
2023-11-30T00:44:39.182Z,8.88
2023-11-30T00:47:06.131Z,11.27
2023-11-30T00:49:32.975Z,10.40
2023-11-30T00:51:59.800Z,10.85
2023-11-30T00:54:26.684Z,15.13
2023-11-30T00:56:53.520Z,11.23
2023-11-30T00:59:20.380Z,13.02
2023-11-30T01:01:47.353Z,9.85
2023-11-30T01:04:14.379Z,11.27
2023-11-30T01:06:41.165Z,10.40
2023-11-30T01:09:08.523Z,10.75
2023-11-30T01:11:41.138Z,11.48
2023-11-30T01:14:07.957Z,10.07
2023-11-30T01:16:34.764Z,10.80
2023-11-30T01:19:01.702Z,13.03
2023-11-30T01:21:28.625Z,13.95
2023-11-30T01:23:55.579Z,8.95
2023-11-30T01:26:23.781Z,8.70
2023-11-30T01:28:50.630Z,8.18
2023-11-30T01:31:17.512Z,8.33
2023-11-30T01:33:44.405Z,8.77
2023-11-30T01:36:11.592Z,7.65
2023-11-30T01:38:38.390Z,7.88
2023-11-30T01:41:05.374Z,7.60
2023-11-30T01:43:32.432Z,11.13
2023-11-30T01:46:03.678Z,9.27
2023-11-30T01:48:32.420Z,8.35
2023-11-30T01:51:00.451Z,9.80
2023-11-30T01:53:27.450Z,8.70
2023-11-30T01:55:56.046Z,8.90
2023-11-30T01:58:23.171Z,7.38
2023-11-30T02:00:51.416Z,8.40
2023-11-30T02:03:18.392Z,7.60
2023-11-30T02:05:48.334Z,7.57
2023-11-30T02:08:15.154Z,7.40
2023-11-30T02:10:42.262Z,8.87
2023-11-30T02:13:09.345Z,8.30
2023-11-30T02:15:36.361Z,7.63
2023-11-30T02:18:03.473Z,7.45
2023-11-30T02:20:31.212Z,7.30
2023-11-30T02:22:58.022Z,8.80
2023-11-30T02:25:25.121Z,8.25
2023-11-30T02:27:51.971Z,7.88
2023-11-30T02:30:18.973Z,7.37
2023-11-30T02:32:46.050Z,7.00
2023-11-30T02:35:13.764Z,9.13
2023-11-30T02:37:40.626Z,9.30
2023-11-30T02:40:08.018Z,9.83
2023-11-30T02:42:34.825Z,7.88
2023-11-30T02:45:01.709Z,8.70
2023-11-30T02:47:28.511Z,9.00
2023-11-30T02:49:55.285Z,9.43
2023-11-30T02:52:22.112Z,7.72
2023-11-30T02:54:49.030Z,8.30
2023-11-30T02:57:15.919Z,8.43
2023-11-30T02:59:43.754Z,9.17
2023-11-30T03:02:10.952Z,9.00
2023-11-30T03:04:37.830Z,9.57
2023-11-30T03:07:04.708Z,7.47
2023-11-30T03:09:31.981Z,7.68
2023-11-30T03:11:58.909Z,7.50
2023-11-30T03:14:25.838Z,9.23
2023-11-30T03:16:52.982Z,8.83
2023-11-30T03:19:19.873Z,7.23
2023-11-30T03:21:50.052Z,7.18
2023-11-30T03:24:18.436Z,7.70
2023-11-30T03:26:45.361Z,7.90
2023-11-30T03:29:12.290Z,8.13
2023-11-30T03:31:40.827Z,7.27
2023-11-30T03:34:08.339Z,8.07
2023-11-30T03:36:35.162Z,9.80
2023-11-30T03:39:02.037Z,7.73
2023-11-30T03:41:28.891Z,8.50
2023-11-30T03:43:56.267Z,9.67
2023-11-30T03:46:25.852Z,8.40
2023-11-30T03:48:56.288Z,9.47
2023-11-30T03:51:23.497Z,8.80
2023-11-30T03:53:50.329Z,7.57
2023-11-30T03:56:17.156Z,8.57
2023-11-30T03:58:43.940Z,8.37
2023-11-30T04:01:10.735Z,9.23
2023-11-30T04:03:37.682Z,9.40
2023-11-30T04:06:05.011Z,86.83
2023-11-30T04:08:32.169Z,157.57
2023-11-30T04:10:58.968Z,93.00
2023-11-30T04:13:26.776Z,18.37
2023-11-30T04:15:53.675Z,11.33
2023-11-30T04:18:20.605Z,10.30
2023-11-30T04:20:47.449Z,10.10
2023-11-30T04:23:14.329Z,11.13
2023-11-30T04:25:41.315Z,12.33
2023-11-30T04:28:08.228Z,10.73
2023-11-30T04:30:35.093Z,11.43
2023-11-30T04:33:02.025Z,10.20
2023-11-30T04:35:28.967Z,12.67
2023-11-30T04:37:55.824Z,10.53
2023-11-30T04:40:22.609Z,8.93
2023-11-30T04:42:49.432Z,11.07
2023-11-30T04:45:16.328Z,12.40
2023-11-30T04:47:43.168Z,7.07
2023-11-30T04:50:10.144Z,8.23
2023-11-30T04:52:36.987Z,11.47
2023-11-30T04:55:04.060Z,8.57
2023-11-30T04:57:30.895Z,6.70
2023-11-30T04:59:57.654Z,96.27
2023-11-30T05:02:24.581Z,48.87
2023-11-30T05:04:51.624Z,8.90
2023-11-30T05:07:18.504Z,12.57
2023-11-30T05:09:45.664Z,9.13
2023-11-30T05:12:12.544Z,9.80
2023-11-30T05:14:39.390Z,9.90
2023-11-30T05:17:06.248Z,10.80
2023-11-30T05:19:33.063Z,11.67
2023-11-30T05:21:59.856Z,11.20
2023-11-30T05:24:26.725Z,11.17
2023-11-30T05:26:53.888Z,12.87
2023-11-30T05:29:20.757Z,13.10
2023-11-30T05:31:47.560Z,12.87
2023-11-30T05:34:14.455Z,14.87
2023-11-30T05:36:41.303Z,17.53
2023-11-30T05:39:08.166Z,17.80
2023-11-30T05:41:35.051Z,18.83
2023-11-30T05:44:03.300Z,23.67
2023-11-30T05:46:31.626Z,21.10
2023-11-30T05:48:58.621Z,19.90
2023-11-30T05:51:27.790Z,25.00
2023-11-30T05:53:54.699Z,23.87
2023-11-30T05:56:21.669Z,25.77
2023-11-30T05:58:48.491Z,21.70
2023-11-30T06:01:15.339Z,19.07
2023-11-30T06:03:42.852Z,21.47
2023-11-30T06:06:11.249Z,23.17
2023-11-30T06:08:38.326Z,26.07
2023-11-30T06:11:05.332Z,27.33
2023-11-30T06:13:32.102Z,24.80
2023-11-30T06:15:59.096Z,27.53
2023-11-30T06:18:26.181Z,29.07
2023-11-30T06:20:53.033Z,28.23
2023-11-30T06:23:19.826Z,28.33
2023-11-30T06:25:46.617Z,26.27
2023-11-30T06:28:13.472Z,27.97
2023-11-30T06:30:40.615Z,28.90
2023-11-30T06:33:07.553Z,27.23
2023-11-30T06:35:34.462Z,30.50
2023-11-30T06:38:01.304Z,29.53
2023-11-30T06:40:28.115Z,30.33
2023-11-30T06:42:55.759Z,27.40
2023-11-30T06:45:22.586Z,29.30
2023-11-30T06:47:49.512Z,27.43
2023-11-30T06:50:16.398Z,28.70
2023-11-30T06:52:43.251Z,28.83
2023-11-30T06:55:11.183Z,26.90
2023-11-30T06:57:39.538Z,31.27
2023-11-30T07:00:12.151Z,27.30
2023-11-30T07:02:39.216Z,25.23
2023-11-30T07:05:06.933Z,24.07
2023-11-30T07:07:36.800Z,26.83
2023-11-30T07:10:05.550Z,28.13
2023-11-30T07:12:32.734Z,31.17
2023-11-30T07:14:59.805Z,30.07
2023-11-30T07:17:26.697Z,30.03
2023-11-30T07:19:54.597Z,28.20
2023-11-30T07:22:23.428Z,31.67
2023-11-30T07:24:50.348Z,30.57
2023-11-30T07:27:21.298Z,34.43
2023-11-30T07:29:48.765Z,32.90
2023-11-30T07:32:19.854Z,31.27
2023-11-30T07:34:47.380Z,31.83
2023-11-30T07:37:21.490Z,30.77
2023-11-30T07:39:48.328Z,32.07
2023-11-30T07:44:47.527Z,34.37
2023-11-30T07:47:14.361Z,30.93
2023-11-30T07:49:41.681Z,36.57
2023-11-30T07:52:08.748Z,33.50
2023-11-30T07:54:35.632Z,32.10
2023-11-30T07:57:02.452Z,35.10
2023-11-30T07:59:29.284Z,41.30
2023-11-30T08:01:56.205Z,36.47
2023-11-30T08:04:23.297Z,36.53
2023-11-30T08:06:50.338Z,32.60
2023-11-30T08:09:18.055Z,33.03
2023-11-30T08:11:45.135Z,38.47
2023-11-30T08:14:12.169Z,36.77
2023-11-30T08:16:41.822Z,34.60
2023-11-30T08:19:09.099Z,35.73
2023-11-30T08:21:41.444Z,70.13
2023-11-30T08:24:10.148Z,49.97
2023-11-30T08:26:37.736Z,64.30
2023-11-30T08:29:04.865Z,63.47
2023-11-30T08:31:31.765Z,35.20
2023-11-30T08:33:58.618Z,35.57
2023-11-30T08:36:26.262Z,85.83
2023-11-30T08:38:53.179Z,50.57
2023-11-30T08:41:21.723Z,37.20
2023-11-30T08:43:49.172Z,31.13
2023-11-30T08:46:16.037Z,30.13
2023-11-30T08:48:42.909Z,30.13
2023-11-30T08:51:11.879Z,29.50
2023-11-30T08:53:38.964Z,30.60
2023-11-30T08:56:06.975Z,31.17
2023-11-30T08:58:34.737Z,32.30
2023-11-30T09:01:01.638Z,27.23
2023-11-30T09:03:28.482Z,28.30
2023-11-30T09:05:55.338Z,29.83
2023-11-30T09:08:23.334Z,30.83
2023-11-30T09:10:50.113Z,32.03
2023-11-30T09:13:16.965Z,31.77
2023-11-30T09:15:44.156Z,29.60
2023-11-30T09:18:12.609Z,29.60
2023-11-30T09:20:39.787Z,28.77
2023-11-30T09:23:07.463Z,45.85
2023-11-30T09:25:34.514Z,34.40
2023-11-30T09:28:01.359Z,27.77
2023-11-30T09:30:28.322Z,35.80
2023-11-30T09:32:55.371Z,35.60
2023-11-30T09:35:22.527Z,31.13
2023-11-30T09:37:49.581Z,28.07
2023-11-30T09:40:16.646Z,29.07
2023-11-30T09:42:43.495Z,28.90
2023-11-30T09:45:10.722Z,27.88
2023-11-30T09:47:37.864Z,28.92
2023-11-30T09:50:05.040Z,25.80
2023-11-30T09:52:32.967Z,29.58
2023-11-30T09:55:00.568Z,25.40
2023-11-30T09:57:27.670Z,25.00
2023-11-30T09:59:56.088Z,25.83
2023-11-30T10:02:26.976Z,30.90
2023-11-30T10:04:53.930Z,24.13
2023-11-30T10:07:22.146Z,35.35
2023-11-30T10:09:49.454Z,28.65
2023-11-30T10:12:21.322Z,34.28
2023-11-30T10:14:48.646Z,24.02
2023-11-30T10:17:15.722Z,24.65
2023-11-30T10:19:43.289Z,26.23
2023-11-30T10:22:10.550Z,25.65
2023-11-30T10:24:37.415Z,24.95
2023-11-30T10:27:08.865Z,25.98
2023-11-30T10:29:42.611Z,23.88
2023-11-30T10:32:14.458Z,25.55
2023-11-30T10:34:50.216Z,25.85
2023-11-30T10:37:24.490Z,25.20
2023-11-30T10:40:01.298Z,27.67
2023-11-30T10:42:31.817Z,24.80
2023-11-30T10:45:05.561Z,23.08
2023-11-30T10:47:33.698Z,25.20
2023-11-30T10:50:01.814Z,24.02
2023-11-30T10:52:32.635Z,27.15
2023-11-30T10:55:13.226Z,22.02
2023-11-30T10:57:46.771Z,24.85
2023-11-30T11:00:15.659Z,24.65
2023-11-30T11:02:48.614Z,21.75
2023-11-30T11:05:20.041Z,20.92
2023-11-30T11:07:48.127Z,20.23
2023-11-30T11:10:36.797Z,20.05
2023-11-30T11:13:04.194Z,21.15
2023-11-30T11:15:31.574Z,20.85
2023-11-30T11:18:09.224Z,21.80
2023-11-30T11:20:38.218Z,21.75
2023-11-30T11:23:05.060Z,20.83
2023-11-30T11:25:42.308Z,19.52
2023-11-30T11:28:09.712Z,17.92
2023-11-30T11:30:43.228Z,19.30
2023-11-30T11:33:10.222Z,18.30
2023-11-30T11:35:37.152Z,18.17
2023-11-30T11:38:04.197Z,17.98
2023-11-30T11:40:31.015Z,18.20
2023-11-30T11:42:58.030Z,18.30
2023-11-30T11:45:25.013Z,18.92
2023-11-30T11:47:53.113Z,17.23
2023-11-30T11:50:20.440Z,17.80
2023-11-30T11:52:47.407Z,17.58
2023-11-30T11:55:14.947Z,17.30
2023-11-30T11:57:44.261Z,20.02
2023-11-30T12:00:15.658Z,18.90
2023-11-30T12:02:43.220Z,17.45
2023-11-30T12:05:13.017Z,17.95
2023-11-30T12:07:53.574Z,17.52
2023-11-30T12:10:31.358Z,19.23
2023-11-30T12:13:00.938Z,17.20
2023-11-30T12:15:28.908Z,17.48
2023-11-30T12:17:56.367Z,19.40
2023-11-30T12:20:23.619Z,20.77
2023-11-30T12:22:50.563Z,20.52
2023-11-30T12:25:17.997Z,20.88
2023-11-30T12:27:45.944Z,20.13
2023-11-30T12:30:13.937Z,21.02
2023-11-30T12:32:40.987Z,21.48
2023-11-30T12:35:08.821Z,21.00
2023-11-30T12:37:37.415Z,21.67
2023-11-30T12:40:05.378Z,20.92
2023-11-30T12:42:32.438Z,22.35
2023-11-30T12:44:59.687Z,23.15
2023-11-30T12:47:27.174Z,20.65
2023-11-30T12:49:54.269Z,23.80
2023-11-30T12:52:22.302Z,24.42
2023-11-30T12:54:53.155Z,22.88
2023-11-30T12:57:21.129Z,23.65
2023-11-30T12:59:50.044Z,23.75
2023-11-30T13:02:18.259Z,22.20
2023-11-30T13:04:45.560Z,22.08
2023-11-30T13:07:12.470Z,23.58
2023-11-30T13:09:39.410Z,23.65
2023-11-30T13:12:06.748Z,22.73
2023-11-30T13:14:33.613Z,23.08
2023-11-30T13:17:00.454Z,23.30
2023-11-30T13:19:27.855Z,20.17
2023-11-30T13:21:54.775Z,24.67
2023-11-30T13:24:21.649Z,25.65
2023-11-30T13:26:51.819Z,25.95
2023-11-30T13:29:18.761Z,27.40
2023-11-30T13:31:45.804Z,24.25
2023-11-30T13:34:13.088Z,24.90
2023-11-30T13:36:40.907Z,24.55
2023-11-30T13:39:09.921Z,25.08
2023-11-30T13:41:36.755Z,26.05
2023-11-30T13:44:06.233Z,25.27
2023-11-30T13:46:34.708Z,25.58
2023-11-30T13:49:01.791Z,27.10
2023-11-30T13:51:29.536Z,20.55
2023-11-30T13:53:56.397Z,20.70
2023-11-30T13:56:23.630Z,22.70
2023-11-30T13:58:50.821Z,21.67
2023-11-30T14:01:18.120Z,21.02
2023-11-30T14:03:45.717Z,23.13
2023-11-30T14:06:13.421Z,20.20
2023-11-30T14:08:41.310Z,19.42
2023-11-30T14:11:13.316Z,20.30
2023-11-30T14:13:40.445Z,18.95
2023-11-30T14:16:08.311Z,19.02
2023-11-30T14:18:35.284Z,17.00
2023-11-30T14:21:02.142Z,15.35
2023-11-30T14:23:29.135Z,15.07
2023-11-30T14:25:57.766Z,15.07
2023-11-30T14:28:26.396Z,14.88
2023-11-30T14:30:53.979Z,14.15
2023-11-30T14:33:21.296Z,12.98
2023-11-30T14:35:48.083Z,16.23
2023-11-30T14:38:14.791Z,16.83
2023-11-30T14:40:41.893Z,18.65
2023-11-30T14:43:08.513Z,15.98
2023-11-30T14:45:35.292Z,19.60
2023-11-30T14:48:02.218Z,16.70
2023-11-30T14:50:29.106Z,19.65
2023-11-30T14:52:55.750Z,18.67
2023-11-30T14:55:22.488Z,19.48
2023-11-30T14:57:49.191Z,21.60
2023-11-30T15:00:18.578Z,18.63
2023-11-30T15:02:45.453Z,19.25
2023-11-30T15:05:15.022Z,20.45
2023-11-30T15:07:42.624Z,19.15
2023-11-30T15:10:11.988Z,18.02
2023-11-30T15:12:39.330Z,17.35
2023-11-30T15:15:13.636Z,19.70
2023-11-30T15:17:42.482Z,93.38
2023-11-30T15:20:11.079Z,66.32
2023-11-30T15:22:37.921Z,62.38
2023-11-30T15:25:07.817Z,31.38
2023-11-30T15:27:35.839Z,23.63
2023-11-30T15:30:03.613Z,19.30
2023-11-30T15:32:30.251Z,20.55
2023-11-30T15:34:56.980Z,17.17
2023-11-30T15:37:23.941Z,18.83
2023-11-30T15:39:50.736Z,18.35
2023-11-30T15:42:17.428Z,18.25
2023-11-30T15:44:44.161Z,19.73
2023-11-30T15:47:10.915Z,18.70
2023-11-30T15:49:37.587Z,18.50
2023-11-30T15:52:04.743Z,20.02
2023-11-30T15:54:31.463Z,19.23
2023-11-30T15:56:58.250Z,17.48
2023-11-30T15:59:25.226Z,21.42
2023-11-30T16:01:52.395Z,20.85
2023-11-30T16:04:19.173Z,18.50
2023-11-30T16:06:47.589Z,18.80
2023-11-30T16:09:14.320Z,17.92
2023-11-30T16:11:41.051Z,21.48
2023-11-30T16:14:07.670Z,19.60
2023-11-30T16:16:35.021Z,19.20
2023-11-30T16:19:01.830Z,21.83
2023-11-30T16:21:28.840Z,23.75
2023-11-30T16:23:56.581Z,24.90
2023-11-30T16:26:25.928Z,23.30
2023-11-30T16:28:54.526Z,22.60
2023-11-30T16:31:21.180Z,21.35
2023-11-30T16:33:50.387Z,22.88
2023-11-30T16:36:17.126Z,23.15
2023-11-30T16:38:43.822Z,23.70
2023-11-30T16:41:10.459Z,22.52
2023-11-30T16:43:38.115Z,21.40
2023-11-30T16:46:05.660Z,25.02
2023-11-30T16:48:32.554Z,23.83
2023-11-30T16:51:00.220Z,24.85
2023-11-30T16:53:28.941Z,44.22
2023-11-30T16:55:56.483Z,122.97
2023-11-30T16:58:23.302Z,150.20
2023-11-30T17:00:50.326Z,34.30
2023-11-30T17:03:17.266Z,28.75
2023-11-30T17:05:44.130Z,24.65
2023-11-30T17:08:10.806Z,25.23
2023-11-30T17:10:37.459Z,26.55
2023-11-30T17:13:05.538Z,28.17
2023-11-30T17:15:33.079Z,24.98
2023-11-30T17:17:59.809Z,23.02
2023-11-30T17:20:26.519Z,21.60
2023-11-30T17:22:53.308Z,364.42
2023-11-30T17:25:21.223Z,474.27
2023-11-30T17:27:48.076Z,661.65
2023-11-30T17:30:15.802Z,1063.80
2023-11-30T17:32:42.707Z,472.42
2023-11-30T17:35:09.912Z,94.13
2023-11-30T17:37:36.844Z,51.53
2023-11-30T17:40:04.067Z,25.63
2023-11-30T17:42:30.735Z,25.55
2023-11-30T17:44:57.472Z,22.92
2023-11-30T17:47:24.362Z,21.65
2023-11-30T17:49:51.253Z,22.00
2023-11-30T17:52:18.099Z,22.17
2023-11-30T17:54:44.824Z,24.50
2023-11-30T17:57:12.723Z,25.58
2023-11-30T17:59:39.665Z,22.92
2023-11-30T18:02:07.081Z,21.73
2023-11-30T18:04:34.098Z,22.27
2023-11-30T18:07:02.582Z,21.05
2023-11-30T18:09:29.474Z,25.70
2023-11-30T18:11:56.407Z,22.90
2023-11-30T18:14:29.074Z,22.75
2023-11-30T18:16:56.181Z,21.42
2023-11-30T18:19:22.973Z,24.13
2023-11-30T18:21:49.812Z,24.00
2023-11-30T18:24:16.663Z,23.92
2023-11-30T18:26:43.512Z,21.13
2023-11-30T18:29:11.110Z,22.15
2023-11-30T18:31:38.641Z,22.33
2023-11-30T18:34:05.589Z,21.52
2023-11-30T18:36:32.583Z,22.88
2023-11-30T18:38:59.498Z,252.65
2023-11-30T18:41:26.694Z,263.83
2023-11-30T18:43:53.530Z,1081.93
2023-11-30T18:46:20.461Z,306.13
2023-11-30T18:48:47.719Z,150.98
2023-11-30T18:51:14.798Z,92.18
2023-11-30T18:53:42.117Z,79.70
2023-11-30T18:56:09.285Z,44.50
2023-11-30T18:58:36.132Z,27.00
2023-11-30T19:01:03.103Z,24.42
2023-11-30T19:03:30.195Z,25.35
2023-11-30T19:05:57.703Z,23.23
2023-11-30T19:08:24.942Z,24.88
2023-11-30T19:10:53.031Z,25.15
2023-11-30T19:13:19.861Z,24.75
2023-11-30T19:15:46.942Z,24.55
2023-11-30T19:18:14.282Z,23.80
2023-11-30T19:20:41.406Z,24.50
2023-11-30T19:23:08.248Z,56.17
2023-11-30T19:25:35.539Z,250.68
2023-11-30T19:28:02.559Z,64.50
2023-11-30T19:30:29.823Z,42.92
2023-11-30T19:32:56.792Z,28.67
2023-11-30T19:35:23.604Z,27.63
2023-11-30T19:37:50.431Z,24.58
2023-11-30T19:40:17.356Z,27.17
2023-11-30T19:42:44.203Z,27.05
2023-11-30T19:45:11.998Z,25.88
2023-11-30T19:47:38.937Z,24.55
2023-11-30T19:50:06.479Z,26.85
2023-11-30T19:52:34.500Z,27.00
2023-11-30T19:55:02.809Z,25.02
2023-11-30T19:57:31.925Z,24.85
2023-11-30T19:59:58.953Z,26.98
2023-11-30T20:02:25.921Z,28.95
2023-11-30T20:04:53.258Z,32.45
2023-11-30T20:07:20.078Z,28.60
2023-11-30T20:09:46.858Z,31.83
2023-11-30T20:12:13.748Z,35.10
2023-11-30T20:14:42.245Z,43.80
2023-11-30T20:17:09.468Z,39.33
2023-11-30T20:19:36.444Z,33.72
2023-11-30T20:22:04.145Z,34.33
2023-11-30T20:24:35.386Z,36.53
2023-11-30T20:27:09.084Z,34.40
2023-11-30T20:29:36.170Z,33.95
2023-11-30T20:32:03.132Z,35.45
2023-11-30T20:34:30.095Z,35.80
2023-11-30T20:36:57.528Z,35.40
2023-11-30T20:39:26.155Z,33.47
2023-11-30T20:41:53.293Z,38.05
2023-11-30T20:44:20.844Z,38.53
2023-11-30T20:46:48.628Z,82.30
2023-11-30T20:49:15.729Z,47.65
2023-11-30T20:51:44.122Z,41.30
2023-11-30T20:54:11.416Z,218.18
2023-11-30T20:56:38.510Z,121.25
2023-11-30T20:59:06.162Z,68.07
2023-11-30T21:01:34.206Z,167.50
2023-11-30T21:04:01.702Z,394.60
2023-11-30T21:06:29.193Z,252.25
2023-11-30T21:08:56.391Z,46.33
2023-11-30T21:11:23.304Z,42.33
2023-11-30T21:13:50.826Z,42.55
2023-11-30T21:16:22.536Z,36.47
2023-11-30T21:18:52.077Z,103.57
2023-11-30T21:21:19.657Z,39.17
2023-11-30T21:23:46.589Z,38.55
2023-11-30T21:26:13.486Z,56.72
2023-11-30T21:28:40.968Z,356.70
2023-11-30T21:31:08.201Z,466.10
2023-11-30T21:33:35.480Z,420.63
2023-11-30T21:36:02.677Z,251.93
2023-11-30T21:38:29.627Z,73.55
2023-11-30T21:40:57.624Z,36.40
2023-11-30T21:43:24.905Z,31.88
2023-11-30T21:45:53.020Z,32.63
2023-11-30T21:48:20.822Z,30.63
2023-11-30T21:50:47.778Z,30.45
2023-11-30T21:53:15.041Z,29.58
2023-11-30T21:55:42.210Z,31.63
2023-11-30T21:58:12.211Z,30.63
2023-11-30T22:00:40.100Z,32.47
2023-11-30T22:03:07.186Z,30.77
2023-11-30T22:05:36.868Z,29.80
2023-11-30T22:08:05.270Z,30.75
2023-11-30T22:10:32.166Z,30.30
2023-11-30T22:13:00.096Z,29.33
2023-11-30T22:15:27.568Z,30.75
2023-11-30T22:17:54.646Z,143.93
2023-11-30T22:20:22.803Z,75.05
2023-11-30T22:22:49.732Z,83.57
2023-11-30T22:25:16.601Z,67.97
2023-11-30T22:27:44.074Z,56.60
2023-11-30T22:30:15.042Z,33.22
2023-11-30T22:32:42.527Z,28.25
2023-11-30T22:35:10.350Z,27.58
2023-11-30T22:37:37.757Z,31.35
2023-11-30T22:40:06.086Z,30.60
2023-11-30T22:42:36.406Z,32.55
2023-11-30T22:45:04.893Z,31.73
2023-11-30T22:47:32.559Z,36.92
2023-11-30T22:50:00.190Z,33.60
2023-11-30T22:52:27.648Z,30.60
2023-11-30T22:54:54.958Z,32.40
2023-11-30T22:57:23.396Z,35.67
2023-11-30T22:59:51.176Z,32.38
2023-11-30T23:02:20.044Z,34.55
2023-11-30T23:04:47.358Z,34.80
2023-11-30T23:07:14.410Z,33.80
2023-11-30T23:09:41.343Z,37.35
2023-11-30T23:12:08.759Z,35.22
2023-11-30T23:14:35.793Z,36.85
2023-11-30T23:17:02.838Z,38.00
2023-11-30T23:19:32.723Z,33.75
2023-11-30T23:22:00.287Z,36.58
2023-11-30T23:24:31.893Z,36.05
2023-11-30T23:26:59.444Z,33.67
2023-11-30T23:29:26.442Z,32.83
2023-11-30T23:31:53.818Z,32.63
2023-11-30T23:34:20.851Z,33.33
2023-11-30T23:36:48.119Z,34.60
2023-11-30T23:39:15.375Z,36.70
2023-11-30T23:41:42.346Z,37.07
2023-11-30T23:44:09.618Z,38.33
2023-11-30T23:46:46.068Z,36.10
2023-11-30T23:49:19.419Z,36.22
2023-11-30T23:51:47.209Z,35.58
2023-11-30T23:54:14.238Z,36.10
2023-11-30T23:56:41.128Z,37.00
2023-11-30T23:59:08.983Z,35.80
